Time;durP1;ratioP1;P1;durP2;ratioP2;P2;SDS_P1;SDS_P2;PMS_P1;PMS_P2;Temp;Humidity;BMP_temperature;BMP_pressure;BME280_temperature;BME280_humidity;BME280_pressure;Samples;Min_cycle;Max_cycle;Signal;HPM_P1;HPM_P2
2022/05/17 00:02:07;;;;;;;5.20;3.45;;;11.90;99.90;;;;;;4932384;29;20036;-79
2022/05/17 00:04:34;;;;;;;7.95;3.40;;;12.00;99.90;;;;;;4932970;29;20030;-78
2022/05/17 00:07:01;;;;;;;4.75;3.08;;;12.00;99.90;;;;;;4930910;29;20384;-79
2022/05/17 00:09:27;;;;;;;5.78;3.10;;;12.00;99.90;;;;;;4933013;29;20036;-78
2022/05/17 00:11:53;;;;;;;5.10;2.85;;;11.90;99.90;;;;;;4931689;29;20055;-78
2022/05/17 01:16:37;;;;;;;4.20;1.95;;;11.30;99.90;;;;;;4970717;28;20124;-77
2022/05/17 01:19:06;;;;;;;4.57;1.70;;;11.20;99.90;;;;;;4953094;28;20054;-80
2022/05/17 01:21:32;;;;;;;4.78;1.83;;;11.20;99.90;;;;;;4970028;28;20054;-80
2022/05/17 01:23:58;;;;;;;3.42;1.58;;;11.10;99.90;;;;;;4939819;29;20447;-79
2022/05/17 01:26:27;;;;;;;3.85;1.70;;;11.00;99.90;;;;;;4950409;29;20493;-79
2022/05/17 01:28:52;;;;;;;2.80;1.92;;;11.00;99.90;;;;;;4950909;29;20035;-79
2022/05/17 01:31:19;;;;;;;3.80;2.00;;;11.10;99.90;;;;;;4950277;29;20046;-79
2022/05/17 01:33:45;;;;;;;4.15;1.95;;;11.10;99.90;;;;;;4950141;28;20035;-80
2022/05/17 01:36:14;;;;;;;2.65;2.15;;;11.00;99.90;;;;;;4950612;29;20106;-79
2022/05/17 01:38:45;;;;;;;3.30;1.70;;;11.10;99.90;;;;;;4951017;29;20090;-80
2022/05/17 01:41:11;;;;;;;3.50;1.97;;;11.10;99.90;;;;;;4950371;29;20030;-80
2022/05/17 01:43:36;;;;;;;4.93;1.70;;;11.10;99.90;;;;;;4932842;29;20278;-79
2022/05/17 01:46:07;;;;;;;2.90;1.85;;;11.10;99.90;;;;;;4951820;29;20102;-80
2022/05/17 01:48:33;;;;;;;2.17;1.58;;;11.00;99.90;;;;;;4951394;28;20135;-80
2022/05/17 01:50:58;;;;;;;6.53;1.98;;;11.00;99.90;;;;;;4936302;29;20106;-80
2022/05/17 01:53:24;;;;;;;2.13;1.40;;;11.00;99.90;;;;;;4954426;28;20035;-79
2022/05/17 01:55:50;;;;;;;4.80;1.67;;;10.90;99.90;;;;;;4937463;29;20027;-80
2022/05/17 01:58:15;;;;;;;2.47;1.80;;;10.90;99.90;;;;;;4953722;29;20023;-79
2022/05/17 02:00:41;;;;;;;5.35;1.63;;;10.90;99.90;;;;;;4953604;29;20023;-80
2022/05/17 02:03:07;;;;;;;2.33;1.48;;;10.70;99.90;;;;;;4954280;28;20503;-80
2022/05/17 02:05:33;;;;;;;3.22;1.80;;;10.60;99.90;;;;;;4936886;29;20040;-79
2022/05/17 02:07:59;;;;;;;3.42;1.65;;;10.60;99.90;;;;;;4952573;29;20114;-80
2022/05/17 02:10:27;;;;;;;2.15;1.33;;;10.50;99.90;;;;;;4954339;29;20457;-80
2022/05/17 03:14:59;;;;;;;5.78;2.35;;;10.00;99.90;;;;;;4919216;29;20040;-80
2022/05/17 03:17:26;;;;;;;5.10;2.33;;;10.00;99.90;;;;;;4915806;29;20135;-80
2022/05/17 03:19:54;;;;;;;3.40;2.42;;;9.90;99.90;;;;;;4916293;29;20056;-80
2022/05/17 03:22:19;;;;;;;6.47;2.63;;;9.90;99.90;;;;;;4916119;29;20051;-81
2022/05/17 03:24:45;;;;;;;5.55;2.35;;;9.80;99.90;;;;;;4915844;29;20047;-81
2022/05/17 03:27:11;;;;;;;4.60;2.22;;;9.90;99.90;;;;;;4898164;29;20032;-80
2022/05/17 03:29:37;;;;;;;3.30;2.45;;;9.90;99.90;;;;;;4915290;29;20030;-81
2022/05/17 03:32:03;;;;;;;3.85;2.63;;;9.90;99.90;;;;;;4916635;29;20503;-80
2022/05/17 03:34:29;;;;;;;3.05;2.60;;;9.90;99.90;;;;;;4915806;29;20029;-81
2022/05/17 03:36:54;;;;;;;4.10;2.63;;;9.90;99.90;;;;;;4916214;29;20022;-78
2022/05/17 03:39:20;;;;;;;8.02;2.67;;;9.90;99.90;;;;;;4915272;29;20087;-80
2022/05/17 03:41:46;;;;;;;6.55;3.35;;;9.90;99.90;;;;;;4914956;29;20025;-79
2022/05/17 03:44:11;;;;;;;5.22;3.47;;;9.80;99.90;;;;;;4914959;29;20043;-80
2022/05/17 03:46:38;;;;;;;5.13;2.97;;;9.90;99.90;;;;;;4916175;29;20027;-80
2022/05/17 03:49:03;;;;;;;6.32;3.40;;;9.90;99.90;;;;;;4914803;29;20083;-80
2022/05/17 03:51:29;;;;;;;8.52;3.58;;;9.90;99.90;;;;;;4914283;29;20028;-81
2022/05/17 03:53:55;;;;;;;7.65;2.78;;;9.80;99.90;;;;;;4914977;29;20024;-80
2022/05/17 03:56:21;;;;;;;4.78;3.22;;;9.70;99.90;;;;;;4915957;29;20540;-80
2022/05/17 03:58:46;;;;;;;7.05;3.58;;;9.70;99.90;;;;;;4898245;29;20466;-81
2022/05/17 04:01:12;;;;;;;9.60;3.83;;;9.70;99.90;;;;;;4920447;29;20016;-79
2022/05/17 04:03:39;;;;;;;7.70;3.42;;;9.70;99.90;;;;;;4914952;29;21477;-79
2022/05/17 04:06:06;;;;;;;6.38;3.00;;;9.80;99.90;;;;;;4914932;29;20031;-80
2022/05/17 04:08:32;;;;;;;6.85;3.65;;;9.80;99.90;;;;;;4914321;29;20482;-80
2022/05/17 04:10:58;;;;;;;11.02;4.40;;;9.70;99.90;;;;;;4915470;29;20028;-80
2022/05/17 05:12:57;;;;;;;8.10;3.17;;;9.80;99.90;;;;;;5892988;23;23935;-79
2022/05/17 05:15:24;;;;;;;7.57;4.35;;;9.80;99.90;;;;;;4900074;29;20477;-79
2022/05/17 05:17:50;;;;;;;7.95;3.83;;;9.90;99.90;;;;;;4914737;29;20827;-79
2022/05/17 05:20:16;;;;;;;7.45;4.25;;;9.90;99.90;;;;;;4898144;29;20060;-79
2022/05/17 05:22:43;;;;;;;7.22;3.72;;;10.00;99.90;;;;;;4896610;29;20061;-79
2022/05/17 05:25:09;;;;;;;6.70;3.35;;;10.10;99.90;;;;;;4914312;29;20163;-79
2022/05/17 05:27:37;;;;;;;8.75;3.70;;;10.30;99.90;;;;;;4936185;29;20135;-78
2022/05/17 05:30:05;;;;;;;5.90;3.38;;;10.40;99.90;;;;;;4936065;29;20028;-79
2022/05/17 05:32:30;;;;;;;4.95;3.20;;;10.50;99.90;;;;;;4934820;29;20083;-79
2022/05/17 05:34:56;;;;;;;7.68;3.67;;;10.60;99.90;;;;;;4936283;29;20055;-79
2022/05/17 05:37:22;;;;;;;7.85;3.55;;;10.70;99.90;;;;;;4936165;29;20031;-78
2022/05/17 05:39:48;;;;;;;6.80;3.25;;;10.80;99.90;;;;;;4936068;29;20027;-79
2022/05/17 05:42:14;;;;;;;6.30;3.38;;;10.90;99.90;;;;;;4936588;29;20012;-78
2022/05/17 05:44:39;;;;;;;6.75;3.38;;;10.90;99.90;;;;;;4935768;29;20023;-79
2022/05/17 05:47:05;;;;;;;8.25;3.85;;;11.00;99.90;;;;;;4935719;29;20071;-79
2022/05/17 05:49:31;;;;;;;5.75;3.20;;;11.10;99.90;;;;;;4935881;29;20024;-79
2022/05/17 05:51:57;;;;;;;6.30;3.30;;;11.10;99.90;;;;;;4936534;29;20048;-79
2022/05/17 05:54:23;;;;;;;6.25;3.40;;;11.20;99.90;;;;;;4918637;29;20028;-78
2022/05/17 05:56:48;;;;;;;5.53;3.30;;;11.30;99.90;;;;;;4935993;29;20031;-79
2022/05/17 05:59:14;;;;;;;8.25;3.80;;;11.40;99.90;;;;;;4935259;29;20102;-79
2022/05/17 06:01:40;;;;;;;5.03;2.92;;;11.50;99.90;;;;;;4934348;29;20107;-79
2022/05/17 06:04:06;;;;;;;7.57;3.47;;;11.50;99.90;;;;;;4930315;29;20034;-78
2022/05/17 06:06:32;;;;;;;8.85;3.55;;;11.60;99.90;;;;;;4935936;29;20037;-79
2022/05/17 06:08:58;;;;;;;8.50;3.42;;;11.60;99.90;;;;;;4934929;29;20039;-79
2022/05/17 06:11:23;;;;;;;8.43;4.15;;;11.80;99.90;;;;;;4918318;29;20031;-78
2022/05/17 06:13:50;;;;;;;7.28;3.90;;;12.10;99.90;;;;;;4969709;23;20373;-77
2022/05/17 06:16:16;;;;;;;7.20;3.67;;;12.50;99.90;;;;;;4973346;28;20090;-78
2022/05/17 06:18:42;;;;;;;6.55;3.53;;;13.10;99.90;;;;;;4973252;28;20700;-79
2022/05/17 06:21:08;;;;;;;7.63;3.50;;;13.80;99.90;;;;;;4972481;28;20101;-79
2022/05/17 06:23:35;;;;;;;5.30;3.63;;;14.40;99.90;;;;;;4947687;29;20038;-79
2022/05/17 06:26:01;;;;;;;6.20;3.08;;;14.80;99.90;;;;;;4954318;29;20015;-79
2022/05/17 06:28:27;;;;;;;5.82;2.92;;;15.00;99.90;;;;;;4953513;29;20078;-79
2022/05/17 06:30:53;;;;;;;8.20;3.42;;;15.10;99.90;;;;;;4954291;29;20548;-79
2022/05/17 06:33:20;;;;;;;9.85;4.72;;;15.00;99.90;;;;;;4953410;28;20023;-79
2022/05/17 06:35:48;;;;;;;7.32;4.45;;;14.90;99.90;;;;;;4954133;28;20377;-79
2022/05/17 06:38:15;;;;;;;10.23;5.25;;;14.80;99.90;;;;;;4946206;29;20035;-79
2022/05/17 06:40:41;;;;;;;11.43;5.38;;;14.70;99.90;;;;;;4953752;29;20027;-79
2022/05/17 06:43:07;;;;;;;9.32;5.18;;;14.70;99.90;;;;;;4953655;28;20027;-79
2022/05/17 06:45:33;;;;;;;7.63;4.60;;;14.80;99.90;;;;;;4936015;29;20024;-79
2022/05/17 06:48:00;;;;;;;8.88;4.55;;;14.90;99.90;;;;;;4952480;29;20023;-79
2022/05/17 06:50:27;;;;;;;12.45;4.57;;;14.90;99.90;;;;;;4936152;29;20499;-78
2022/05/17 06:52:53;;;;;;;9.65;4.60;;;14.90;99.90;;;;;;4950629;28;20019;-78
2022/05/17 06:55:19;;;;;;;9.40;5.32;;;14.90;99.90;;;;;;4953327;29;20495;-79
2022/05/17 06:57:45;;;;;;;13.90;5.63;;;14.90;99.90;;;;;;4953274;29;20375;-80
2022/05/17 07:00:12;;;;;;;8.88;4.72;;;14.90;99.90;;;;;;4952842;29;20015;-80
2022/05/17 07:02:39;;;;;;;11.13;5.18;;;15.00;99.90;;;;;;4951573;29;20035;-85
2022/05/17 07:05:05;;;;;;;8.57;4.95;;;15.00;99.90;;;;;;4953284;29;20098;-87
2022/05/17 07:07:31;;;;;;;9.18;4.97;;;15.10;99.90;;;;;;4953043;29;20375;-82
2022/05/17 08:14:59;;;;;;;7.63;2.03;;;17.60;99.90;;;;;;5028895;23;20058;-79
2022/05/17 08:17:25;;;;;;;4.18;1.65;;;17.80;99.90;;;;;;4933962;29;20036;-79
2022/05/17 08:19:50;;;;;;;2.38;1.27;;;17.90;99.90;;;;;;4934536;29;20035;-80
2022/05/17 08:22:16;;;;;;;5.97;2.05;;;17.90;99.90;;;;;;4934430;29;20031;-79
2022/05/17 08:27:36;;;;;;;5.82;1.60;;;18.20;99.90;;;;;;4934135;29;20043;-79
2022/05/17 08:30:15;;;;;;;3.28;1.27;;;18.30;99.90;;;;;;4934474;29;20059;-80
2022/05/17 08:35:30;;;;;;;6.57;1.77;;;18.70;99.90;;;;;;4934315;29;20039;-79
2022/05/17 08:37:56;;;;;;;3.63;1.65;;;19.10;99.90;;;;;;4934272;29;20035;-80
2022/05/17 08:40:23;;;;;;;4.90;1.67;;;19.90;99.90;;;;;;4934110;29;20056;-80
2022/05/17 08:43:12;;;;;;;4.47;1.50;;;21.20;99.90;;;;;;4915462;29;20023;-81
2022/05/17 08:46:07;;;;;;;3.40;1.40;;;22.30;99.90;;;;;;4926399;29;20019;-80
2022/05/17 08:48:46;;;;;;;3.58;0.82;;;23.40;99.40;;;;;;4927681;29;20492;-80
2022/05/17 08:51:17;;;;;;;2.40;1.00;;;24.60;94.60;;;;;;4926725;29;20086;-82
2022/05/17 08:53:45;;;;;;;2.58;1.08;;;25.00;87.00;;;;;;4928743;29;20087;-81
2022/05/17 08:56:12;;;;;;;2.45;0.98;;;24.70;88.50;;;;;;4930413;29;20016;-81
2022/05/17 08:58:40;;;;;;;4.22;0.98;;;25.40;87.90;;;;;;4933903;29;20043;-81
2022/05/17 09:01:19;;;;;;;1.50;0.98;;;25.90;84.70;;;;;;4936053;29;20519;-81
2022/05/17 09:03:47;;;;;;;2.35;1.00;;;26.50;77.90;;;;;;4936006;29;20114;-81
2022/05/17 09:06:25;;;;;;;4.05;1.00;;;26.90;76.60;;;;;;4936792;29;20147;-81
2022/05/17 09:09:04;;;;;;;2.83;1.15;;;27.00;71.70;;;;;;4936415;29;20513;-81
2022/05/17 09:11:33;;;;;;;1.92;1.13;;;27.10;70.50;;;;;;4937544;29;20038;-81
2022/05/17 09:14:04;;;;;;;4.05;1.13;;;27.00;71.40;;;;;;4946461;23;20054;-81
2022/05/17 09:16:40;;;;;;;7.38;1.17;;;27.40;69.80;;;;;;4939219;29;20558;-81
2022/05/17 09:19:06;;;;;;;4.57;1.00;;;27.50;69.80;;;;;;4956440;29;20031;-82
2022/05/17 09:21:35;;;;;;;3.88;1.20;;;28.50;67.30;;;;;;4957415;29;20027;-82
2022/05/17 09:24:07;;;;;;;2.58;1.10;;;27.60;64.70;;;;;;4952916;29;20102;-81
2022/05/17 09:26:34;;;;;;;2.70;0.98;;;27.90;69.40;;;;;;4955997;29;20031;-82
2022/05/17 09:29:22;;;;;;;6.47;1.23;;;29.00;65.30;;;;;;4956632;29;20046;-81
2022/05/17 09:32:01;;;;;;;3.22;1.23;;;28.30;61.30;;;;;;4939147;29;20062;-83
2022/05/17 09:34:33;;;;;;;2.42;1.05;;;28.00;67.70;;;;;;4955908;29;20047;-81
2022/05/17 09:37:12;;;;;;;2.13;1.02;;;28.20;63.70;;;;;;4939562;29;20082;-82
2022/05/17 09:39:38;;;;;;;2.20;0.80;;;28.60;62.20;;;;;;4956288;29;20041;-82
2022/05/17 09:42:07;;;;;;;2.78;1.20;;;28.70;63.00;;;;;;4954956;29;20020;-81
2022/05/17 09:44:41;;;;;;;4.13;1.90;;;28.50;59.60;;;;;;4946353;29;20039;-82
2022/05/17 09:47:18;;;;;;;4.43;1.20;;;28.30;60.60;;;;;;4937308;29;20023;-82
2022/05/17 09:52:34;;;;;;;2.45;0.80;;;29.90;62.30;;;;;;4936691;29;20468;-81
2022/05/17 09:55:15;;;;;;;3.08;1.48;;;31.30;58.20;;;;;;4950835;29;20078;-82
2022/05/17 09:57:56;;;;;;;3.20;0.90;;;30.60;51.30;;;;;;4955680;29;20040;-82
2022/05/17 10:00:49;;;;;;;2.42;1.40;;;30.70;55.10;;;;;;4951249;29;20042;-81
2022/05/17 10:03:15;;;;;;;2.47;0.93;;;30.70;54.00;;;;;;4936187;29;20107;-81
2022/05/17 10:05:45;;;;;;;2.22;1.20;;;31.60;56.50;;;;;;4955355;29;20110;-82
2022/05/17 10:08:14;;;;;;;3.83;0.90;;;32.60;51.40;;;;;;4954980;29;20030;-81
2022/05/17 10:10:44;;;;;;;5.97;0.98;;;32.80;52.20;;;;;;4955653;28;20313;-82
2022/05/17 10:13:19;;;;;;;2.53;1.00;;;32.60;48.20;;;;;;4975007;23;20027;-82
2022/05/17 10:15:48;;;;;;;3.15;1.08;;;33.40;48.80;;;;;;4898573;29;20037;-83
2022/05/17 10:18:30;;;;;;;1.17;0.77;;;34.40;46.20;;;;;;4897868;29;20492;-83
2022/05/17 10:21:04;;;;;;;5.82;1.00;;;33.00;49.20;;;;;;4898130;29;20368;-82
2022/05/17 10:23:43;;;;;;;2.03;0.70;;;32.60;46.20;;;;;;4899585;29;20048;-82
2022/05/17 10:26:15;;;;;;;2.45;0.90;;;32.40;48.50;;;;;;4917699;29;20029;-82
2022/05/17 10:28:40;;;;;;;2.13;0.90;;;32.20;50.00;;;;;;4916192;29;20024;-83
2022/05/17 10:31:30;;;;;;;3.25;0.90;;;32.00;49.40;;;;;;4899569;29;20572;-83
2022/05/17 10:34:21;;;;;;;5.03;0.80;;;32.30;51.20;;;;;;4909839;29;20012;-84
2022/05/17 10:36:51;;;;;;;5.22;0.93;;;33.30;48.70;;;;;;4912105;29;20032;-83
2022/05/17 10:39:48;;;;;;;2.33;0.70;;;33.30;45.80;;;;;;4916215;29;20442;-83
2022/05/17 10:42:14;;;;;;;2.17;0.73;;;34.10;45.30;;;;;;4911159;29;20028;-83
2022/05/17 10:44:44;;;;;;;2.97;0.85;;;34.20;44.50;;;;;;4915720;29;20454;-83
2022/05/17 10:47:34;;;;;;;2.25;0.80;;;32.80;44.50;;;;;;4916183;29;20669;-83
2022/05/17 10:50:41;;;;;;;2.70;0.65;;;33.00;43.80;;;;;;4916200;29;20020;-83
2022/05/17 10:53:28;;;;;;;3.85;0.77;;;33.10;48.10;;;;;;4905515;29;20032;-83
2022/05/17 10:56:18;;;;;;;2.97;0.70;;;34.10;43.70;;;;;;4911428;29;20020;-83
2022/05/17 10:59:03;;;;;;;0.70;0.57;;;34.90;44.80;;;;;;4910992;29;20044;-83
2022/05/17 11:01:42;;;;;;;4.07;0.63;;;35.60;40.90;;;;;;4916154;29;20030;-83
2022/05/17 11:04:16;;;;;;;1.77;0.70;;;36.20;40.40;;;;;;4915379;29;20024;-83
2022/05/17 11:07:12;;;;;;;1.42;0.60;;;37.00;37.80;;;;;;4909386;29;20020;-84
2022/05/17 11:09:43;;;;;;;3.22;0.50;;;36.90;36.30;;;;;;4910984;29;20055;-83
2022/05/17 11:12:12;;;;;;;1.98;0.60;;;36.60;36.90;;;;;;4915251;29;20076;-83
2022/05/17 11:14:41;;;;;;;1.75;0.63;;;36.00;37.60;;;;;;4961178;23;20051;-80
2022/05/17 11:17:14;;;;;;;0.43;0.25;;;36.00;35.80;;;;;;4937737;29;20031;-81
2022/05/17 11:19:48;;;;;;;3.85;0.60;;;37.30;34.10;;;;;;4954487;29;20106;-81
2022/05/17 11:22:37;;;;;;;2.65;1.00;;;37.70;34.00;;;;;;4952673;28;20033;-80
2022/05/17 11:25:30;;;;;;;0.55;0.30;;;37.60;30.50;;;;;;4937716;29;20023;-80
2022/05/17 11:28:08;;;;;;;1.58;0.30;;;37.80;33.30;;;;;;4935083;29;20612;-81
2022/05/17 11:30:52;;;;;;;1.00;0.30;;;37.60;31.50;;;;;;4935125;29;20023;-80
2022/05/17 11:33:24;;;;;;;2.90;0.70;;;37.80;33.70;;;;;;4934114;29;20024;-80
2022/05/17 11:35:53;;;;;;;2.10;0.40;;;37.50;32.30;;;;;;4935277;29;20059;-81
2022/05/17 11:38:41;;;;;;;1.55;0.35;;;37.90;31.40;;;;;;4934648;29;20082;-80
2022/05/17 11:41:35;;;;;;;1.05;0.47;;;36.10;32.50;;;;;;4935453;29;20068;-80
2022/05/17 11:44:05;;;;;;;2.97;0.43;;;37.00;37.10;;;;;;4934643;29;20389;-80
2022/05/17 11:46:31;;;;;;;1.23;0.40;;;37.90;33.60;;;;;;4934735;29;20078;-81
2022/05/17 11:49:11;;;;;;;2.17;0.40;;;37.80;31.50;;;;;;4934350;29;20016;-81
2022/05/17 11:51:40;;;;;;;1.52;0.40;;;37.40;29.40;;;;;;4935389;29;20039;-81
2022/05/17 11:54:10;;;;;;;2.05;0.40;;;38.10;31.20;;;;;;4933893;29;20027;-81
2022/05/17 11:56:39;;;;;;;1.92;0.40;;;35.70;31.10;;;;;;4933750;29;20031;-81
2022/05/17 11:59:08;;;;;;;1.23;0.30;;;37.00;32.40;;;;;;4934220;29;20436;-80
2022/05/17 12:01:35;;;;;;;2.90;0.47;;;37.90;29.20;;;;;;4934268;29;20031;-81
2022/05/17 12:04:46;;;;;;;1.95;0.38;;;37.40;28.90;;;;;;4934368;29;20032;-80
2022/05/17 12:07:29;;;;;;;0.85;0.22;;;37.70;30.90;;;;;;4934614;29;20024;-80
2022/05/17 12:10:15;;;;;;;1.70;0.30;;;39.40;30.30;;;;;;4934205;29;20027;-81
2022/05/17 12:15:49;;;;;;;3.33;0.50;;;39.40;30.90;;;;;;4891312;29;20080;-84
2022/05/17 12:18:17;;;;;;;4.45;0.47;;;39.10;27.50;;;;;;4877694;29;20033;-83
2022/05/17 12:20:49;;;;;;;0.20;0.10;;;39.80;28.70;;;;;;4877684;29;20109;-84
2022/05/17 12:23:20;;;;;;;2.05;0.40;;;39.90;25.80;;;;;;4860428;29;20024;-83
2022/05/17 12:26:07;;;;;;;2.03;0.25;;;39.30;27.50;;;;;;4877094;29;20027;-83
2022/05/17 12:28:46;;;;;;;1.38;0.35;;;39.30;29.70;;;;;;4871423;29;20119;-82
2022/05/17 12:31:19;;;;;;;2.78;0.60;;;39.20;28.10;;;;;;4879340;29;20031;-83
2022/05/17 12:33:48;;;;;;;1.40;0.50;;;38.70;28.50;;;;;;4875847;29;20017;-83
2022/05/17 12:36:20;;;;;;;1.38;0.50;;;39.30;28.60;;;;;;4872286;29;20084;-81
2022/05/17 12:44:38;;;;;;;2.97;0.40;;;38.30;26.70;;;;;;4880431;29;20043;-83
2022/05/17 12:47:09;;;;;;;1.63;0.40;;;37.90;27.90;;;;;;4879091;29;20023;-83
2022/05/17 12:49:38;;;;;;;3.40;0.43;;;37.20;28.00;;;;;;4877417;29;20025;-83
2022/05/17 12:52:26;;;;;;;3.45;0.40;;;36.30;30.30;;;;;;4877885;29;20028;-82
2022/05/17 12:54:53;;;;;;;2.58;0.40;;;38.80;32.10;;;;;;4876856;29;20033;-83
2022/05/17 12:57:24;;;;;;;2.55;0.47;;;39.00;30.00;;;;;;4878953;29;20093;-83
2022/05/17 12:59:50;;;;;;;1.67;0.40;;;39.10;29.40;;;;;;4876962;29;20029;-83
2022/05/17 13:02:23;;;;;;;1.63;0.40;;;39.80;27.40;;;;;;4863837;29;20467;-81
2022/05/17 13:04:49;;;;;;;3.45;0.60;;;40.70;28.10;;;;;;4866646;29;20470;-83
2022/05/17 13:07:17;;;;;;;3.58;0.70;;;39.90;29.50;;;;;;4878737;29;20534;-81
2022/05/17 13:09:54;;;;;;;3.55;0.75;;;37.90;26.90;;;;;;4879629;29;20080;-81
2022/05/17 13:12:22;;;;;;;4.47;0.52;;;37.50;33.30;;;;;;4878054;29;20021;-81
2022/05/17 14:14:23;;;;;;;1.92;0.47;;;34.80;32.80;;;;;;5485473;23;20047;-80
2022/05/17 14:17:01;;;;;;;1.58;0.40;;;36.50;34.00;;;;;;4935158;29;20118;-80
2022/05/17 14:19:30;;;;;;;2.58;0.45;;;37.00;30.20;;;;;;4934538;29;20044;-79
2022/05/17 14:22:03;;;;;;;0.63;0.30;;;37.40;29.40;;;;;;4930242;29;20016;-80
2022/05/17 14:24:29;;;;;;;2.15;0.40;;;37.00;29.20;;;;;;4930357;29;20028;-79
2022/05/17 14:26:57;;;;;;;2.17;0.20;;;36.30;29.40;;;;;;4917064;29;20107;-79
2022/05/17 14:29:26;;;;;;;1.05;0.40;;;37.30;29.90;;;;;;4899904;29;20493;-79
2022/05/17 14:31:52;;;;;;;1.70;0.47;;;37.60;29.20;;;;;;4910480;29;20024;-80
2022/05/17 14:34:23;;;;;;;0.45;0.30;;;37.70;29.80;;;;;;4899743;29;20111;-79
2022/05/17 14:36:50;;;;;;;1.73;0.25;;;37.90;29.50;;;;;;4900239;29;20493;-80
2022/05/17 14:39:17;;;;;;;0.32;0.15;;;37.90;28.10;;;;;;4916181;29;20489;-80
2022/05/17 14:41:46;;;;;;;2.30;0.45;;;37.40;28.50;;;;;;4916548;29;20028;-80
2022/05/17 14:44:12;;;;;;;2.55;0.40;;;37.10;28.60;;;;;;4898320;29;20029;-79
2022/05/17 14:46:39;;;;;;;1.65;0.30;;;36.30;29.70;;;;;;4916037;29;20047;-79
2022/05/17 14:49:06;;;;;;;2.22;0.30;;;37.30;29.70;;;;;;4899062;29;20016;-78
2022/05/17 14:51:32;;;;;;;2.42;0.30;;;37.30;30.10;;;;;;4916488;29;20047;-79
2022/05/17 14:53:58;;;;;;;3.53;0.47;;;38.00;29.00;;;;;;4915587;29;20063;-79
2022/05/17 14:56:24;;;;;;;0.93;0.35;;;38.00;30.00;;;;;;4915294;29;20625;-79
2022/05/17 14:58:50;;;;;;;1.25;0.35;;;38.20;29.40;;;;;;4915712;29;20123;-79
2022/05/17 15:01:18;;;;;;;2.10;0.50;;;37.30;30.20;;;;;;4918802;29;20386;-80
2022/05/17 15:04:01;;;;;;;2.78;0.52;;;38.30;29.60;;;;;;4909784;29;20032;-80
2022/05/17 15:06:28;;;;;;;2.97;0.65;;;37.80;32.00;;;;;;4922660;29;20167;-79
2022/05/17 15:08:56;;;;;;;0.70;0.20;;;37.20;31.00;;;;;;4916035;29;20082;-79
2022/05/17 15:11:22;;;;;;;1.48;0.60;;;37.30;29.60;;;;;;4899729;29;20083;-80
2022/05/17 15:13:48;;;;;;;1.63;0.40;;;37.70;29.20;;;;;;4937016;23;20080;-80
2022/05/17 15:16:17;;;;;;;1.15;0.45;;;36.90;30.60;;;;;;4900084;29;20029;-81
2022/05/17 15:18:47;;;;;;;2.45;0.40;;;36.60;30.10;;;;;;4879724;29;20034;-81
2022/05/17 15:21:13;;;;;;;3.95;0.38;;;37.10;31.10;;;;;;4896861;29;20017;-81
2022/05/17 15:23:41;;;;;;;1.75;0.52;;;38.10;31.80;;;;;;4900884;29;20043;-82
2022/05/17 15:26:08;;;;;;;1.02;0.30;;;37.70;29.30;;;;;;4913540;29;20072;-81
2022/05/17 15:28:35;;;;;;;1.25;0.28;;;37.30;30.40;;;;;;4914900;29;20044;-81
2022/05/17 15:31:01;;;;;;;2.35;0.52;;;37.30;30.40;;;;;;4913037;29;20144;-82
2022/05/17 15:33:29;;;;;;;1.58;0.50;;;37.00;29.60;;;;;;4911950;29;20036;-82
2022/05/17 15:35:56;;;;;;;1.73;0.22;;;35.80;31.10;;;;;;4890364;29;20408;-82
2022/05/17 15:38:29;;;;;;;1.85;0.50;;;35.10;32.40;;;;;;4907879;29;20043;-81
2022/05/17 15:40:58;;;;;;;1.67;0.57;;;34.30;33.50;;;;;;4890302;29;20080;-82
2022/05/17 15:43:30;;;;;;;1.40;0.40;;;33.80;33.80;;;;;;4890035;29;20119;-81
2022/05/17 15:46:18;;;;;;;2.05;0.52;;;34.10;35.30;;;;;;4906788;29;20025;-81
2022/05/17 15:54:16;;;;;;;1.08;0.30;;;31.90;36.90;;;;;;4914200;29;20040;-82
2022/05/17 15:56:45;;;;;;;1.33;0.43;;;31.80;36.90;;;;;;4903245;29;20020;-81
2022/05/17 15:59:11;;;;;;;1.38;0.43;;;31.00;37.00;;;;;;4914824;29;20062;-82
2022/05/17 16:01:40;;;;;;;1.58;0.25;;;30.50;38.80;;;;;;4913331;29;20028;-81
2022/05/17 16:06:52;;;;;;;3.03;0.50;;;29.80;41.60;;;;;;4909510;29;20111;-81
2022/05/17 16:09:21;;;;;;;0.90;0.30;;;28.40;42.60;;;;;;4907997;29;20027;-81
2022/05/17 16:11:50;;;;;;;3.88;1.40;;;27.90;42.10;;;;;;4913996;29;20020;-81
2022/05/17 16:14:21;;;;;;;1.58;0.40;;;27.50;43.10;;;;;;4912935;29;20032;-81
2022/05/17 16:16:48;;;;;;;1.98;0.40;;;27.20;44.10;;;;;;4915284;29;20107;-81
2022/05/17 16:19:23;;;;;;;1.27;0.70;;;27.20;44.50;;;;;;4913243;29;20074;-81
2022/05/17 16:21:55;;;;;;;1.08;0.35;;;27.60;44.40;;;;;;4913086;29;20020;-81
2022/05/17 16:24:23;;;;;;;0.68;0.47;;;27.70;45.00;;;;;;4912320;29;20037;-80
2022/05/17 16:26:53;;;;;;;0.88;0.45;;;27.40;45.20;;;;;;4913884;29;20466;-80
2022/05/17 16:29:19;;;;;;;3.20;0.75;;;27.20;45.40;;;;;;4907646;29;20084;-80
2022/05/17 16:31:45;;;;;;;1.13;0.30;;;27.20;45.80;;;;;;4913810;29;20039;-80
2022/05/17 16:34:14;;;;;;;0.93;0.40;;;27.20;45.00;;;;;;4912395;29;20071;-81
2022/05/17 16:36:41;;;;;;;3.22;0.57;;;27.30;44.80;;;;;;4914801;29;20024;-80
2022/05/17 16:39:07;;;;;;;1.42;0.40;;;26.60;44.40;;;;;;4914124;29;20036;-80
2022/05/17 16:41:33;;;;;;;3.60;0.50;;;26.30;46.80;;;;;;4914255;29;20028;-79
2022/05/17 16:43:59;;;;;;;2.90;0.50;;;26.10;46.50;;;;;;4937897;23;20059;-78
2022/05/17 16:46:28;;;;;;;1.98;0.47;;;25.90;48.20;;;;;;4897416;29;20054;-78
2022/05/17 16:48:54;;;;;;;2.58;0.40;;;25.90;50.20;;;;;;4914607;29;20076;-79
2022/05/17 16:51:21;;;;;;;1.25;0.40;;;25.90;48.60;;;;;;4914321;29;20024;-77
2022/05/17 16:53:46;;;;;;;4.50;0.57;;;25.70;49.50;;;;;;4897456;29;20115;-79
2022/05/17 16:56:12;;;;;;;2.17;0.60;;;25.70;50.50;;;;;;4912825;29;20160;-78
2022/05/17 16:58:38;;;;;;;2.53;0.43;;;25.80;49.60;;;;;;4913195;29;20051;-78
2022/05/17 17:01:11;;;;;;;0.90;0.50;;;25.70;48.50;;;;;;4909391;29;20633;-78
2022/05/17 17:03:37;;;;;;;0.65;0.30;;;25.40;49.40;;;;;;4909206;29;20495;-78
2022/05/17 17:06:04;;;;;;;2.92;0.50;;;25.20;49.80;;;;;;4903237;29;20065;-78
2022/05/17 17:08:30;;;;;;;2.33;0.70;;;25.10;48.30;;;;;;4908489;29;20032;-79
2022/05/17 17:10:56;;;;;;;1.35;0.50;;;24.70;49.70;;;;;;4910914;29;20048;-78
2022/05/17 17:13:22;;;;;;;1.60;0.22;;;24.30;51.50;;;;;;4899118;29;20052;-79
2022/05/17 17:15:47;;;;;;;4.32;0.63;;;24.00;52.00;;;;;;4913427;29;20020;-77
2022/05/17 17:18:14;;;;;;;1.27;0.40;;;23.70;53.90;;;;;;4912696;29;20032;-78
2022/05/17 17:20:41;;;;;;;1.67;0.60;;;23.50;54.30;;;;;;4915867;29;20051;-77
2022/05/17 17:23:06;;;;;;;2.97;0.45;;;23.40;52.90;;;;;;4916773;29;20054;-78
2022/05/17 17:25:38;;;;;;;1.83;0.50;;;23.30;54.10;;;;;;4905804;29;20694;-78
2022/05/17 17:28:05;;;;;;;1.40;0.40;;;23.20;53.30;;;;;;4898886;29;20025;-78
2022/05/17 17:30:33;;;;;;;3.67;0.50;;;23.10;54.70;;;;;;4901010;29;20032;-78
2022/05/17 17:38:31;;;;;;;2.88;0.60;;;22.80;55.00;;;;;;4888456;29;20088;-79
2022/05/17 17:40:59;;;;;;;2.30;0.77;;;22.70;55.60;;;;;;4914649;29;20040;-79
2022/05/17 17:46:02;;;;;;;2.78;1.17;;;22.70;58.10;;;;;;4913980;29;20051;-80
2022/05/17 17:48:28;;;;;;;3.85;1.63;;;22.80;58.20;;;;;;4899447;29;20122;-79
2022/05/17 17:50:54;;;;;;;1.95;1.25;;;22.80;59.80;;;;;;4898093;29;20043;-79
2022/05/17 17:53:21;;;;;;;1.75;0.65;;;22.80;58.30;;;;;;4914662;29;20028;-79
2022/05/17 17:55:48;;;;;;;0.90;0.52;;;22.60;57.10;;;;;;4890809;29;20497;-81
2022/05/17 17:58:15;;;;;;;3.10;0.77;;;22.60;56.80;;;;;;4910601;29;20044;-80
2022/05/17 18:00:43;;;;;;;1.23;0.68;;;22.50;60.30;;;;;;4902773;29;20031;-80
2022/05/17 18:03:10;;;;;;;0.98;0.40;;;22.40;60.80;;;;;;4897369;29;20024;-80
2022/05/17 18:05:40;;;;;;;1.73;0.40;;;22.40;60.60;;;;;;4899030;29;20146;-80
2022/05/17 18:08:08;;;;;;;2.17;0.40;;;22.40;60.90;;;;;;4898502;29;20055;-80
2022/05/17 18:10:34;;;;;;;0.68;0.50;;;22.50;61.00;;;;;;4894735;29;20056;-80
2022/05/17 18:13:00;;;;;;;1.35;0.50;;;22.40;61.50;;;;;;4892986;29;20486;-79
2022/05/17 18:15:26;;;;;;;0.40;0.40;;;22.40;60.70;;;;;;4902196;29;20047;-79
2022/05/17 18:17:53;;;;;;;1.42;0.68;;;22.30;60.70;;;;;;4894858;29;20036;-79
2022/05/17 18:20:23;;;;;;;3.03;0.70;;;22.20;60.90;;;;;;4895283;29;20545;-79
2022/05/17 18:22:48;;;;;;;1.63;0.85;;;22.10;61.40;;;;;;4894369;29;20025;-81
2022/05/17 18:25:15;;;;;;;1.80;1.05;;;22.00;61.10;;;;;;4894742;29;20035;-81
2022/05/17 18:27:54;;;;;;;2.58;1.10;;;21.80;63.10;;;;;;4900272;29;20033;-80
2022/05/17 18:30:20;;;;;;;3.53;0.90;;;21.60;63.60;;;;;;4903712;29;20161;-80
2022/05/17 18:32:50;;;;;;;1.65;0.50;;;21.30;68.30;;;;;;4899414;29;20036;-79
2022/05/17 18:35:20;;;;;;;3.58;0.63;;;21.00;72.50;;;;;;4898946;29;20035;-83
2022/05/17 18:37:48;;;;;;;1.25;0.70;;;20.70;82.20;;;;;;4898478;29;20040;-82
2022/05/17 18:40:15;;;;;;;1.95;0.70;;;20.50;91.90;;;;;;4896473;29;20084;-81
2022/05/17 18:42:41;;;;;;;1.40;0.68;;;20.20;99.90;;;;;;4898059;29;20029;-83
2022/05/17 18:45:07;;;;;;;1.60;0.90;;;20.10;99.90;;;;;;4932325;23;20063;-81